Terminal Aerodrome Forecast
Issued by NWS

Current Version | Previous Version | Graphics & Text | Print | Product List | Glossary On
Versions: 1 2 3 4 5 6 7 8 9 10 11 12 13 14 15 16 17 18 19 20 21 22 23 24
000
FTUS41 KPBZ 022326
TAFMGW
TAF
KMGW 022326Z 0300/0324 VRB04KT P6SM -SHRA OVC050
      TEMPO 0300/0301 2SM TSRA BKN025CB OVC050
     FM030300 VRB03KT 3SM -SHRA BR OVC025
     FM031000 VRB03KT 3SM BR VCSH OVC015
     FM031400 VRB03KT P6SM BKN025
     FM031800 30005KT P6SM BKN040=

USA.gov is the U.S. government's official web portal to all federal, state and local government web resources and services.